Time;durP1;ratioP1;P1;durP2;ratioP2;P2;SDS_P1;SDS_P2;PMS_P1;PMS_P2;Temp;Humidity;BMP_temperature;BMP_pressure;BME280_temperature;BME280_humidity;BME280_pressure;Samples;Min_cycle;Max_cycle;Signal;HPM_P1;HPM_P2
2023/06/01 00:00:14;;;;;;;9.40;5.15;;;;;;;13.91;77.79;99734.47;5094764;28;20043;-64
2023/06/01 00:02:42;;;;;;;13.15;4.55;;;;;;;13.79;77.95;99737.28;5101140;28;20433;-64
2023/06/01 00:05:09;;;;;;;8.65;4.13;;;;;;;13.86;78.68;99729.84;5105782;28;20119;-62
2023/06/01 00:07:36;;;;;;;11.50;4.47;;;;;;;13.94;77.96;99729.38;5100097;28;20044;-64
2023/06/01 00:10:04;;;;;;;9.07;4.45;;;;;;;13.94;78.54;99736.66;5106519;28;20686;-64
2023/06/01 00:12:32;;;;;;;9.13;3.40;;;;;;;13.91;78.90;99731.78;5100528;28;20044;-64
2023/06/01 00:14:59;;;;;;;10.75;4.05;;;;;;;13.86;79.31;99734.41;5095519;28;20415;-64
2023/06/01 00:17:28;;;;;;;7.47;3.85;;;;;;;13.78;79.76;99732.97;5095213;28;20044;-63
2023/06/01 00:19:55;;;;;;;14.93;3.65;;;;;;;13.75;79.68;99731.59;5102703;28;20050;-63
2023/06/01 00:22:23;;;;;;;11.18;3.53;;;;;;;13.72;79.96;99733.97;5102848;28;20044;-64
2023/06/01 00:24:51;;;;;;;7.93;3.38;;;;;;;14.03;78.08;99730.56;5094642;28;20119;-63
2023/06/01 00:27:17;;;;;;;11.35;3.28;;;;;;;13.96;77.94;99727.25;5102987;28;20050;-63
2023/06/01 00:29:46;;;;;;;9.00;3.65;;;;;;;13.96;78.00;99721.88;5104586;28;20130;-63
2023/06/01 00:32:13;;;;;;;8.93;3.47;;;;;;;13.87;78.68;99726.06;5104018;28;20040;-63
2023/06/01 00:34:40;;;;;;;18.20;3.80;;;;;;;13.71;79.59;99724.25;5104781;28;20397;-64
2023/06/01 00:37:07;;;;;;;10.88;3.72;;;;;;;13.61;81.01;99724.13;5100659;28;20119;-64
2023/06/01 00:39:34;;;;;;;13.50;3.47;;;;;;;13.27;82.64;99727.72;5094914;28;20089;-63
2023/06/01 00:42:01;;;;;;;10.73;3.80;;;;;;;13.45;80.89;99717.72;5093377;28;20052;-63
2023/06/01 00:44:28;;;;;;;8.98;3.40;;;;;;;13.67;80.16;99721.25;5099414;28;20059;-63
2023/06/01 00:46:59;;;;;;;12.27;3.60;;;;;;;13.48;81.26;99723.44;5099702;28;20067;-63
2023/06/01 00:49:26;;;;;;;13.07;4.18;;;;;;;13.42;81.32;99721.72;5097556;28;20075;-64
2023/06/01 00:51:53;;;;;;;14.70;4.88;;;;;;;13.24;82.35;99716.63;5095887;28;20471;-63
2023/06/01 00:54:20;;;;;;;11.40;5.45;;;;;;;13.28;82.81;99723.16;5099749;28;20127;-63
2023/06/01 00:56:47;;;;;;;11.13;5.20;;;;;;;13.10;83.66;99724.22;5099399;28;20051;-63
2023/06/01 00:59:14;;;;;;;6.55;3.40;;;;;;;13.01;84.38;99718.44;5092797;28;20653;-64
2023/06/01 01:01:43;;;;;;;8.02;4.03;;;;;;;13.00;84.33;99716.78;5102262;28;20089;-64
2023/06/01 01:04:13;;;;;;;9.90;3.72;;;;;;;12.98;84.83;99718.09;5093878;28;20135;-63
2023/06/01 01:06:48;;;;;;;8.93;3.53;;;;;;;12.99;84.86;99715.19;5105653;28;20032;-63
2023/06/01 01:09:21;;;;;;;9.90;3.80;;;;;;;13.27;82.96;99713.44;5097000;28;20051;-63
2023/06/01 01:11:52;;;;;;;7.97;3.92;;;;;;;13.20;83.37;99715.47;5092772;28;20047;-63
2023/06/01 01:14:22;;;;;;;11.40;5.03;;;;;;;13.01;84.60;99721.13;5104786;28;20052;-63
2023/06/01 01:16:50;;;;;;;;;;;;;;;12.94;85.23;99717.78;5092575;28;20568;-64
2023/06/01 01:19:34;;;;;;;7.20;3.80;;;;;;;12.89;86.29;99717.72;5094945;28;19985;-63
2023/06/01 01:22:08;;;;;;;11.27;4.28;;;;;;;12.92;85.32;99720.72;5104151;28;20573;-64
2023/06/01 01:24:39;;;;;;;11.82;4.97;;;;;;;12.88;85.20;99716.91;5100356;28;20040;-64
2023/06/01 01:27:12;;;;;;;10.40;5.03;;;;;;;12.64;86.30;99716.25;5101431;28;20092;-64
2023/06/01 01:29:40;;;;;;;12.30;5.55;;;;;;;12.63;86.47;99719.16;5102497;28;20051;-64
2023/06/01 01:32:07;;;;;;;10.65;4.97;;;;;;;12.39;87.97;99718.50;5103390;28;20423;-64
2023/06/01 01:34:34;;;;;;;10.05;4.78;;;;;;;12.43;87.83;99719.63;5124917;27;20048;-64
2023/06/01 01:37:01;;;;;;;11.38;4.10;;;;;;;12.49;87.58;99719.50;5101128;28;20039;-64
2023/06/01 01:39:28;;;;;;;10.93;4.00;;;;;;;12.53;87.65;99714.47;5097442;28;20059;-64
2023/06/01 01:41:56;;;;;;;10.57;3.78;;;;;;;12.61;87.53;99714.06;5097618;28;20126;-64
2023/06/01 01:44:23;;;;;;;6.82;3.40;;;;;;;12.63;88.32;99716.47;5102672;28;20036;-64
2023/06/01 01:46:56;;;;;;;7.78;3.30;;;;;;;12.55;87.25;99712.31;5094405;28;20047;-64
2023/06/01 01:49:26;;;;;;;8.35;3.45;;;;;;;12.59;86.92;99713.47;5099710;28;20087;-64
2023/06/01 01:51:57;;;;;;;7.43;3.40;;;;;;;12.81;86.40;99710.06;5096591;28;20108;-64
2023/06/01 01:54:24;;;;;;;7.97;3.38;;;;;;;12.73;86.71;99717.47;5105390;28;20067;-64
2023/06/01 01:56:51;;;;;;;10.30;3.40;;;;;;;12.72;87.41;99706.97;5098967;28;20035;-64
2023/06/01 01:59:18;;;;;;;7.70;3.30;;;;;;;12.73;87.74;99709.41;5102587;28;20063;-64
2023/06/01 02:01:45;;;;;;;7.65;3.20;;;;;;;12.68;88.22;99712.03;5103357;28;20567;-64
2023/06/01 02:04:14;;;;;;;7.10;3.05;;;;;;;12.59;89.63;99715.34;5101862;28;20044;-64
2023/06/01 02:06:41;;;;;;;9.02;3.30;;;;;;;12.59;88.17;99710.78;5099573;28;20040;-64
2023/06/01 02:09:08;;;;;;;9.23;3.53;;;;;;;12.56;87.81;99713.16;5108628;28;20044;-64
2023/06/01 02:11:35;;;;;;;8.07;4.30;;;;;;;12.38;88.25;99706.09;5101701;28;20516;-64
2023/06/01 02:14:03;;;;;;;10.10;4.30;;;;;;;12.20;89.36;99710.63;5099259;28;20043;-64
2023/06/01 02:16:30;;;;;;;6.50;3.60;;;;;;;12.13;89.88;99712.69;5132252;27;20558;-64
2023/06/01 02:18:58;;;;;;;7.38;3.60;;;;;;;12.21;92.48;99712.28;5103659;28;20097;-64
2023/06/01 02:21:27;;;;;;;6.55;3.25;;;;;;;12.19;90.77;99714.41;5105833;28;20231;-64
2023/06/01 02:24:04;;;;;;;5.63;3.30;;;;;;;12.15;91.31;99710.56;5102567;28;20044;-64
2023/06/01 02:26:31;;;;;;;9.82;3.38;;;;;;;12.37;89.20;99709.88;5096920;28;20048;-63
2023/06/01 02:28:58;;;;;;;6.07;3.28;;;;;;;12.41;89.61;99711.03;5103737;28;20047;-64
2023/06/01 02:31:26;;;;;;;9.80;3.53;;;;;;;12.74;87.71;99708.34;5099708;28;20043;-63
2023/06/01 02:33:53;;;;;;;6.65;3.50;;;;;;;12.71;87.33;99711.53;5104125;28;20047;-64
2023/06/01 02:36:21;;;;;;;7.30;3.28;;;;;;;12.70;86.57;99709.06;5091230;28;20499;-64
2023/06/01 02:38:49;;;;;;;12.40;3.70;;;;;;;12.62;87.53;99718.34;5108036;28;20044;-64
2023/06/01 02:41:16;;;;;;;10.63;3.70;;;;;;;12.80;87.13;99711.09;5104626;28;20067;-64
2023/06/01 02:43:43;;;;;;;9.93;3.45;;;;;;;12.80;86.19;99709.22;5097857;28;20461;-64
2023/06/01 02:46:13;;;;;;;6.70;3.30;;;;;;;12.83;86.11;99705.22;5099164;28;20046;-64
2023/06/01 02:48:42;;;;;;;11.02;3.80;;;;;;;12.82;86.08;99706.31;5135804;27;20042;-64
2023/06/01 02:51:09;;;;;;;7.90;3.70;;;;;;;12.91;86.03;99705.66;5106230;28;20044;-64
2023/06/01 02:53:37;;;;;;;10.05;3.90;;;;;;;12.92;86.12;99706.47;5105767;28;20067;-64
2023/06/01 02:56:09;;;;;;;9.15;3.80;;;;;;;12.85;86.55;99705.81;5105952;28;20039;-64
2023/06/01 02:58:54;;;;;;;9.95;3.70;;;;;;;12.88;86.17;99703.47;5099443;28;20090;-64
2023/06/01 03:01:27;;;;;;;12.52;3.80;;;;;;;12.84;86.68;99712.25;5088830;28;20138;-64
2023/06/01 03:03:54;;;;;;;11.02;3.95;;;;;;;12.84;86.62;99710.38;5103835;28;20036;-64
2023/06/01 03:06:22;;;;;;;9.40;3.65;;;;;;;12.87;87.00;99709.06;5097218;28;20058;-64
2023/06/01 03:09:15;;;;;;;6.18;3.88;;;;;;;12.84;86.98;99706.88;5100832;28;20043;-64
2023/06/01 03:11:56;;;;;;;9.15;3.65;;;;;;;12.82;87.62;99714.38;5103448;28;20192;-64
2023/06/01 03:14:23;;;;;;;9.52;3.70;;;;;;;12.74;87.91;99704.84;5099103;28;20293;-63
2023/06/01 03:16:51;;;;;;;9.20;4.03;;;;;;;12.78;88.23;99710.53;5098332;28;20042;-64
2023/06/01 03:19:20;;;;;;;8.40;3.83;;;;;;;12.81;87.97;99715.44;5095984;28;20559;-63
2023/06/01 03:21:51;;;;;;;13.00;4.13;;;;;;;12.76;88.31;99712.69;5105845;28;20055;-65
2023/06/01 03:24:27;;;;;;;9.07;3.75;;;;;;;12.73;89.80;99709.41;5097284;28;20055;-65
2023/06/01 03:26:56;;;;;;;8.40;3.72;;;;;;;12.73;88.84;99711.28;5098586;28;20144;-64
2023/06/01 03:29:24;;;;;;;9.90;4.27;;;;;;;12.69;89.42;99713.63;5101755;28;20135;-62
2023/06/01 03:31:51;;;;;;;9.25;4.05;;;;;;;12.55;89.98;99717.69;5105510;28;20299;-62
2023/06/01 03:34:22;;;;;;;9.60;3.90;;;;;;;12.69;90.19;99719.03;5099805;28;20458;-63
2023/06/01 03:36:49;;;;;;;9.63;3.80;;;;;;;13.01;89.23;99720.31;5096695;28;20048;-62
2023/06/01 03:39:17;;;;;;;11.32;4.00;;;;;;;13.43;85.88;99717.16;5097108;28;20647;-62
2023/06/01 03:41:45;;;;;;;11.65;4.10;;;;;;;13.54;85.41;99718.94;5099058;28;20098;-62
2023/06/01 03:44:14;;;;;;;12.10;4.18;;;;;;;13.83;84.05;99722.25;5102642;28;20044;-63
2023/06/01 03:46:45;;;;;;;8.50;4.20;;;;;;;13.96;83.43;99729.13;5095464;28;20051;-63
2023/06/01 03:49:12;;;;;;;12.18;3.92;;;;;;;14.90;78.56;99722.47;5104295;28;20043;-62
2023/06/01 03:51:40;;;;;;;11.38;3.85;;;;;;;15.86;73.48;99724.13;5096482;28;20040;-62
2023/06/01 03:54:07;;;;;;;7.18;3.50;;;;;;;16.58;71.35;99727.78;5095446;28;20053;-62
2023/06/01 03:56:36;;;;;;;8.13;3.75;;;;;;;17.23;67.40;99727.22;5095580;28;20040;-63
2023/06/01 03:59:03;;;;;;;6.93;3.20;;;;;;;16.48;71.86;99732.38;5098647;28;20441;-65
2023/06/01 04:01:33;;;;;;;10.73;3.85;;;;;;;17.49;64.75;99729.84;5104298;28;20039;-64
2023/06/01 04:04:00;;;;;;;;;;;;;;;18.38;61.62;99732.72;5102284;28;20058;-61
2023/06/01 04:06:29;;;;;;;10.48;4.20;;;;;;;18.67;61.41;99730.03;5100817;28;20118;-62
2023/06/01 04:08:58;;;;;;;9.98;3.58;;;;;;;19.42;58.63;99732.38;5107145;28;20056;-61
2023/06/01 04:11:26;;;;;;;;;;;;;;;20.10;55.51;99734.00;5103476;28;20061;-62
2023/06/01 04:13:53;;;;;;;9.27;4.10;;;;;;;20.34;54.56;99725.75;5106335;28;20030;-62
2023/06/01 04:16:21;;;;;;;10.02;3.38;;;;;;;20.67;53.76;99734.81;5096896;28;20051;-62
2023/06/01 04:18:50;;;;;;;12.82;3.47;;;;;;;20.72;52.80;99719.47;5100529;28;20055;-62
2023/06/01 04:21:29;;;;;;;14.68;3.85;;;;;;;20.03;54.51;99733.56;5087126;28;20040;-62
2023/06/01 04:23:56;;;;;;;13.23;4.10;;;;;;;19.26;57.47;99728.19;5096761;28;20140;-62
2023/06/01 04:26:24;;;;;;;14.07;3.97;;;;;;;20.00;55.22;99732.22;5095863;28;20048;-64
2023/06/01 04:28:51;;;;;;;10.77;4.22;;;;;;;20.50;53.40;99729.06;5091427;28;20066;-63
2023/06/01 04:31:19;;;;;;;11.27;3.70;;;;;;;20.87;52.32;99730.16;5093384;28;20089;-62
2023/06/01 04:33:52;;;;;;;9.30;4.38;;;;;;;21.61;51.15;99735.59;5089082;28;20070;-62
2023/06/01 04:36:21;;;;;;;12.50;4.10;;;;;;;20.80;53.08;99724.28;5099194;27;20079;-62
2023/06/01 04:38:52;;;;;;;12.35;3.88;;;;;;;20.88;51.43;99729.81;5093335;28;20047;-62
2023/06/01 04:41:21;;;;;;;8.88;4.00;;;;;;;20.94;52.56;99732.47;5103997;28;20040;-62
2023/06/01 04:43:51;;;;;;;16.30;4.88;;;;;;;22.08;50.71;99739.00;5089102;28;20486;-63
2023/06/01 04:46:20;;;;;;;10.75;4.50;;;;;;;21.33;50.58;99732.84;5102796;28;20048;-62
2023/06/01 04:48:48;;;;;;;19.05;5.25;;;;;;;22.12;49.44;99729.09;5095385;28;20161;-63
2023/06/01 04:51:19;;;;;;;13.70;4.50;;;;;;;24.35;44.22;99731.97;5094068;28;20052;-63
2023/06/01 04:53:49;;;;;;;13.38;5.00;;;;;;;24.77;43.22;99732.31;5100864;28;20047;-63
2023/06/01 04:56:18;;;;;;;22.75;5.00;;;;;;;24.32;43.34;99742.47;5100687;28;20540;-63
2023/06/01 04:58:47;;;;;;;17.05;4.53;;;;;;;23.47;44.69;99745.47;5099272;28;20075;-62
2023/06/01 05:01:15;;;;;;;25.60;5.30;;;;;;;22.76;46.62;99747.28;5096853;28;20566;-62
2023/06/01 05:03:43;;;;;;;17.95;4.50;;;;;;;22.86;46.35;99747.03;5097946;28;20038;-62
2023/06/01 05:06:12;;;;;;;23.27;4.13;;;;;;;22.22;48.03;99760.03;5078745;28;20128;-63
2023/06/01 05:08:41;;;;;;;22.83;5.78;;;;;;;23.21;45.66;99752.72;5098815;28;20035;-63
2023/06/01 05:11:09;;;;;;;24.30;5.03;;;;;;;22.16;48.52;99751.09;5093795;28;20059;-63
2023/06/01 05:13:37;;;;;;;22.73;4.90;;;;;;;23.19;46.69;99746.78;5101802;28;20035;-62
2023/06/01 05:16:05;;;;;;;21.17;4.65;;;;;;;23.91;45.34;99742.88;5102741;28;20058;-65
2023/06/01 05:18:32;;;;;;;13.77;4.53;;;;;;;23.28;46.43;99744.09;5095026;28;20043;-62
2023/06/01 05:20:59;;;;;;;15.60;4.45;;;;;;;22.95;47.10;99750.63;5104234;28;20077;-62
2023/06/01 05:23:27;;;;;;;15.13;4.55;;;;;;;21.84;50.22;99746.59;5105099;28;20050;-62
2023/06/01 05:26:01;;;;;;;14.70;4.40;;;;;;;23.11;46.87;99740.13;5091805;28;20035;-62
2023/06/01 05:28:32;;;;;;;17.67;4.40;;;;;;;22.60;48.44;99738.66;5090321;28;20125;-62
2023/06/01 05:31:00;;;;;;;14.00;4.60;;;;;;;23.54;46.55;99744.19;5102597;28;20048;-62
2023/06/01 05:33:31;;;;;;;15.57;4.40;;;;;;;21.82;49.78;99746.13;5096643;28;20107;-62
2023/06/01 05:35:59;;;;;;;13.85;4.78;;;;;;;22.98;48.20;99750.03;5088045;28;20043;-63
2023/06/01 05:38:28;;;;;;;16.13;4.43;;;;;;;24.34;45.01;99739.41;5095567;28;20032;-62
2023/06/01 05:40:56;;;;;;;12.13;4.05;;;;;;;24.25;44.50;99742.13;5108590;28;20051;-63
2023/06/01 05:43:23;;;;;;;13.50;4.90;;;;;;;23.04;47.35;99748.00;5093235;28;20447;-62
2023/06/01 05:45:50;;;;;;;12.95;4.57;;;;;;;23.81;45.81;99738.53;5096020;28;20040;-62
2023/06/01 05:48:18;;;;;;;15.60;4.50;;;;;;;23.99;45.64;99739.38;5096000;28;20145;-62
2023/06/01 05:50:50;;;;;;;11.98;4.50;;;;;;;24.03;45.19;99745.00;5090295;28;20036;-62
2023/06/01 05:53:17;;;;;;;17.50;4.90;;;;;;;23.09;47.87;99747.03;5088566;28;20044;-63
2023/06/01 05:55:44;;;;;;;19.77;5.22;;;;;;;22.97;48.85;99753.91;5104801;28;20040;-62
2023/06/01 05:58:13;;;;;;;21.75;5.47;;;;;;;23.19;47.75;99744.06;5102551;28;20031;-62
2023/06/01 06:00:40;;;;;;;15.17;4.77;;;;;;;23.27;45.86;99751.50;5092715;28;20052;-62
2023/06/01 06:03:11;;;;;;;15.10;4.97;;;;;;;23.25;48.19;99751.78;5100362;28;20050;-63
2023/06/01 06:05:37;;;;;;;17.60;5.40;;;;;;;22.77;49.22;99754.38;5087903;28;20043;-63
2023/06/01 06:08:04;;;;;;;13.25;4.53;;;;;;;23.71;47.43;99749.72;5099243;28;20048;-62
2023/06/01 06:10:31;;;;;;;17.05;4.60;;;;;;;23.07;48.15;99752.03;5103845;28;20381;-62
2023/06/01 06:12:59;;;;;;;23.52;5.03;;;;;;;22.82;47.96;99757.78;5098387;28;20052;-62
2023/06/01 06:15:27;;;;;;;15.70;4.97;;;;;;;23.54;47.54;99749.66;5102852;28;20048;-62
2023/06/01 06:17:55;;;;;;;10.95;4.78;;;;;;;24.30;45.23;99752.91;5093393;28;20043;-63
2023/06/01 06:20:22;;;;;;;12.80;4.55;;;;;;;22.00;49.92;99758.81;5093607;28;20042;-62
2023/06/01 06:22:50;;;;;;;19.10;5.07;;;;;;;23.45;48.43;99753.16;5095397;28;20508;-62
2023/06/01 06:25:18;;;;;;;17.50;4.72;;;;;;;24.03;45.93;99758.69;5089205;28;20138;-62
2023/06/01 06:27:46;;;;;;;19.25;5.07;;;;;;;24.88;44.57;99758.25;5100184;28;20424;-62
2023/06/01 06:30:13;;;;;;;18.42;4.97;;;;;;;23.82;46.07;99763.97;5104462;28;20506;-62
2023/06/01 06:32:42;;;;;;;22.77;5.30;;;;;;;24.98;43.76;99757.91;5103115;28;20036;-62
2023/06/01 06:35:12;;;;;;;20.37;4.90;;;;;;;23.36;47.29;99760.53;5105320;28;20131;-62
2023/06/01 06:37:40;;;;;;;28.25;5.28;;;;;;;23.48;46.93;99758.00;5098541;28;20316;-62
2023/06/01 06:40:08;;;;;;;23.13;5.22;;;;;;;25.31;44.38;99754.59;5105788;28;20287;-62
2023/06/01 06:42:35;;;;;;;16.80;5.67;;;;;;;25.64;42.90;99759.50;5106695;28;20049;-62
2023/06/01 06:45:04;;;;;;;22.92;4.97;;;;;;;24.81;44.14;99749.69;5098161;28;20305;-62
2023/06/01 06:47:32;;;;;;;24.27;5.47;;;;;;;25.61;43.67;99759.03;5106526;28;20047;-63
2023/06/01 06:50:00;;;;;;;24.67;4.82;;;;;;;26.54;41.50;99755.56;5106681;28;20104;-63
2023/06/01 06:52:27;;;;;;;16.02;5.22;;;;;;;26.17;41.02;99758.09;5100162;28;20044;-63
2023/06/01 06:54:55;;;;;;;9.93;4.53;;;;;;;25.57;42.81;99758.06;5096331;28;20040;-63
2023/06/01 06:57:22;;;;;;;15.68;5.05;;;;;;;25.26;44.26;99752.88;5105830;28;20059;-62
2023/06/01 06:59:49;;;;;;;20.75;4.97;;;;;;;25.68;42.41;99763.19;5102476;28;20054;-62
2023/06/01 07:02:19;;;;;;;18.08;5.10;;;;;;;25.66;43.24;99759.94;5101026;28;20063;-62
2023/06/01 07:04:46;;;;;;;15.75;4.82;;;;;;;23.72;47.45;99756.81;5107028;28;20333;-62
2023/06/01 07:07:15;;;;;;;18.17;5.03;;;;;;;26.13;43.16;99762.63;5101338;28;20071;-63
2023/06/01 07:09:42;;;;;;;22.88;4.90;;;;;;;25.97;42.35;99763.22;5100863;28;20063;-62
2023/06/01 07:12:09;;;;;;;17.92;4.47;;;;;;;25.94;42.47;99757.59;5099762;28;20031;-62
2023/06/01 07:14:37;;;;;;;23.20;4.80;;;;;;;25.70;43.33;99760.91;5096224;28;20063;-63
2023/06/01 07:17:05;;;;;;;24.00;5.05;;;;;;;26.06;42.24;99759.59;5101297;28;20040;-62
2023/06/01 07:19:33;;;;;;;16.23;4.72;;;;;;;26.84;41.24;99754.31;5107393;28;20055;-62
2023/06/01 07:22:01;;;;;;;23.87;4.77;;;;;;;26.46;41.69;99754.47;5094191;28;20064;-62
2023/06/01 07:24:29;;;;;;;19.63;4.82;;;;;;;26.19;42.05;99755.81;5095219;28;20048;-62
2023/06/01 07:26:57;;;;;;;11.20;4.47;;;;;;;24.48;44.76;99761.97;5097497;28;20098;-64
2023/06/01 07:29:26;;;;;;;18.50;4.55;;;;;;;23.67;46.43;99760.50;5096084;28;20071;-63
2023/06/01 07:31:53;;;;;;;12.07;4.82;;;;;;;24.96;44.76;99749.19;5106957;28;20494;-63
2023/06/01 07:34:21;;;;;;;22.38;4.75;;;;;;;24.48;45.71;99756.50;5100543;28;20131;-63
2023/06/01 07:36:48;;;;;;;21.58;5.38;;;;;;;27.95;39.75;99751.72;5099942;28;20052;-63
2023/06/01 07:39:16;;;;;;;16.92;4.50;;;;;;;27.69;39.82;99750.13;5097903;28;20040;-62
2023/06/01 07:41:49;;;;;;;24.70;5.15;;;;;;;27.23;40.99;99757.66;5101062;28;20044;-62
2023/06/01 07:44:18;;;;;;;22.30;5.20;;;;;;;24.96;45.27;99749.19;5089860;28;20137;-63
2023/06/01 07:46:45;;;;;;;17.95;5.25;;;;;;;26.60;42.25;99756.97;5098432;28;20035;-62
2023/06/01 07:49:13;;;;;;;19.67;4.85;;;;;;;24.21;46.23;99757.59;5097379;28;20036;-62
2023/06/01 07:51:41;;;;;;;19.50;5.18;;;;;;;23.84;47.24;99761.72;5103268;28;20031;-62
2023/06/01 07:54:08;;;;;;;20.20;4.85;;;;;;;24.97;45.54;99750.81;5096751;28;20059;-64
2023/06/01 07:56:35;;;;;;;15.50;5.03;;;;;;;26.10;43.37;99758.59;5095779;28;20044;-64
2023/06/01 07:59:03;;;;;;;22.27;5.30;;;;;;;23.80;47.70;99744.31;5102313;28;20071;-62
2023/06/01 08:01:31;;;;;;;12.68;4.78;;;;;;;24.37;46.68;99751.66;5104815;28;20557;-62
2023/06/01 08:03:58;;;;;;;19.10;5.10;;;;;;;24.26;46.84;99743.75;5100991;28;20052;-62
2023/06/01 08:06:26;;;;;;;25.67;5.28;;;;;;;24.48;47.74;99739.25;5097407;28;20098;-62
2023/06/01 08:08:53;;;;;;;18.33;5.03;;;;;;;26.03;44.27;99747.34;5101610;28;20058;-62
2023/06/01 08:11:21;;;;;;;14.20;4.90;;;;;;;26.25;44.01;99749.75;5095373;28;20043;-62
2023/06/01 08:13:48;;;;;;;17.77;5.20;;;;;;;25.31;45.59;99738.16;5103676;28;20032;-62
2023/06/01 08:16:17;;;;;;;17.23;4.72;;;;;;;27.03;42.34;99739.22;5099734;28;20086;-62
2023/06/01 08:18:44;;;;;;;14.60;4.97;;;;;;;26.03;43.40;99737.19;5098579;28;20131;-62
2023/06/01 08:21:11;;;;;;;21.13;4.85;;;;;;;24.72;46.46;99736.81;5105974;28;20040;-62
2023/06/01 08:23:38;;;;;;;19.67;5.05;;;;;;;26.61;42.28;99744.81;5099989;28;20473;-62
2023/06/01 08:26:05;;;;;;;13.65;5.10;;;;;;;25.27;44.33;99737.22;5101266;28;20120;-62
2023/06/01 08:28:32;;;;;;;18.38;4.72;;;;;;;26.87;41.57;99742.63;5104679;28;20035;-62
2023/06/01 08:31:00;;;;;;;10.23;4.20;;;;;;;24.39;46.07;99735.69;5101043;28;20417;-62
2023/06/01 08:33:28;;;;;;;14.18;4.80;;;;;;;25.47;44.69;99736.47;5103028;28;20331;-62
2023/06/01 08:35:56;;;;;;;13.37;5.40;;;;;;;24.91;45.83;99738.41;5095503;28;20126;-62
2023/06/01 08:38:23;;;;;;;11.45;4.95;;;;;;;26.39;43.92;99738.50;5094337;28;20048;-62
2023/06/01 08:40:50;;;;;;;16.00;5.38;;;;;;;25.96;44.40;99725.91;5091378;28;20047;-62
2023/06/01 08:43:19;;;;;;;22.00;5.68;;;;;;;25.66;44.66;99727.84;5094136;28;20036;-62
2023/06/01 08:45:47;;;;;;;18.70;5.47;;;;;;;25.14;46.23;99723.34;5099060;28;20482;-62
2023/06/01 08:48:16;;;;;;;11.05;4.93;;;;;;;24.91;46.49;99725.50;5096054;28;20057;-63
2023/06/01 08:50:45;;;;;;;12.23;5.03;;;;;;;24.91;46.02;99719.22;5101068;28;20123;-62
2023/06/01 08:53:12;;;;;;;11.70;5.40;;;;;;;25.91;44.80;99734.34;5103479;28;20152;-62
2023/06/01 08:55:39;;;;;;;15.32;5.57;;;;;;;24.95;47.86;99720.16;5095706;28;20036;-62
2023/06/01 08:58:07;;;;;;;18.88;5.38;;;;;;;25.73;45.72;99719.88;5101714;28;20039;-62
2023/06/01 09:00:34;;;;;;;20.45;5.50;;;;;;;25.94;45.57;99722.69;5096221;28;20046;-62
2023/06/01 09:03:01;;;;;;;18.83;5.70;;;;;;;25.22;46.18;99713.50;5106308;28;20071;-62
2023/06/01 09:05:28;;;;;;;15.95;5.28;;;;;;;26.28;44.30;99720.00;5096824;28;20040;-62
2023/06/01 09:07:56;;;;;;;16.80;5.18;;;;;;;26.35;44.48;99712.84;5095252;28;20134;-62
2023/06/01 09:10:24;;;;;;;13.35;5.82;;;;;;;24.96;47.79;99710.81;5103043;28;20050;-62
2023/06/01 09:12:55;;;;;;;22.13;5.80;;;;;;;25.37;46.61;99706.66;5098187;28;20051;-62
2023/06/01 09:15:22;;;;;;;16.75;5.80;;;;;;;25.75;45.62;99709.38;5092698;28;20139;-62
2023/06/01 09:17:51;;;;;;;21.90;5.45;;;;;;;26.26;45.09;99709.38;5103804;28;20071;-62
2023/06/01 09:20:24;;;;;;;16.38;5.70;;;;;;;25.78;45.10;99703.19;5098071;28;20147;-62
2023/06/01 09:22:51;;;;;;;13.20;5.40;;;;;;;26.11;44.84;99701.72;5096847;28;20032;-61
2023/06/01 09:25:24;;;;;;;17.77;5.78;;;;;;;25.74;46.44;99698.75;5099396;28;20075;-62
2023/06/01 09:27:52;;;;;;;20.05;5.70;;;;;;;27.02;44.49;99693.63;5105350;28;20047;-62
2023/06/01 09:30:19;;;;;;;13.80;5.70;;;;;;;25.36;46.94;99692.16;5099334;28;20035;-62
2023/06/01 09:32:50;;;;;;;11.63;4.97;;;;;;;25.45;45.15;99689.34;5099252;28;20067;-61
2023/06/01 09:35:17;;;;;;;14.50;5.32;;;;;;;25.95;43.92;99690.53;5093777;28;20436;-61
2023/06/01 09:37:55;;;;;;;16.35;5.53;;;;;;;25.99;44.90;99692.28;5096489;28;20570;-61
2023/06/01 09:40:23;;;;;;;12.48;5.35;;;;;;;25.60;46.60;99685.25;5100150;28;20032;-62
2023/06/01 09:42:50;;;;;;;15.50;5.28;;;;;;;25.43;45.42;99688.88;5098896;28;20058;-61
2023/06/01 09:45:20;;;;;;;14.07;6.30;;;;;;;24.65;47.77;99683.63;5093443;28;20044;-61
2023/06/01 09:47:47;;;;;;;19.55;5.70;;;;;;;25.30;48.56;99677.00;5102093;28;20094;-62
2023/06/01 09:50:32;;;;;;;22.20;6.60;;;;;;;26.94;44.23;99678.03;5095479;28;20170;-62
2023/06/01 09:52:59;;;;;;;18.38;5.63;;;;;;;25.84;45.53;99673.63;5098031;28;20072;-62
2023/06/01 09:55:28;;;;;;;18.20;5.93;;;;;;;25.55;45.52;99669.75;5092272;28;20147;-61
2023/06/01 09:58:13;;;;;;;19.45;6.80;;;;;;;23.83;49.72;99669.78;5093809;28;20108;-63
2023/06/01 10:00:40;;;;;;;18.08;6.93;;;;;;;25.00;47.22;99669.84;5095084;28;20093;-63
2023/06/01 10:03:07;;;;;;;13.27;6.60;;;;;;;23.99;50.28;99672.84;5100833;28;20131;-63
2023/06/01 10:05:34;;;;;;;20.88;7.22;;;;;;;24.85;48.86;99673.91;5096362;28;20404;-62
2023/06/01 10:08:01;;;;;;;19.98;5.63;;;;;;;25.35;46.00;99668.59;5103119;28;20188;-63
2023/06/01 10:10:30;;;;;;;17.17;6.40;;;;;;;24.96;46.58;99672.41;5103336;28;20497;-63
2023/06/01 10:12:57;;;;;;;21.17;6.10;;;;;;;24.73;46.88;99675.38;5096982;28;20078;-62
2023/06/01 10:15:24;;;;;;;14.52;6.20;;;;;;;24.86;47.87;99673.59;5100608;28;20059;-63
2023/06/01 10:17:51;;;;;;;10.02;5.88;;;;;;;25.05;47.80;99675.16;5101357;28;20516;-63
2023/06/01 10:20:19;;;;;;;19.42;7.80;;;;;;;25.29;46.23;99675.41;5105608;28;20039;-63
2023/06/01 10:22:46;;;;;;;23.67;8.68;;;;;;;25.57;46.93;99678.47;5104364;28;20040;-63
2023/06/01 10:25:13;;;;;;;16.67;8.98;;;;;;;25.74;47.30;99668.53;5107001;28;20047;-62
2023/06/01 10:27:44;;;;;;;20.35;10.02;;;;;;;24.81;49.54;99659.25;5101894;28;20131;-62
2023/06/01 10:30:12;;;;;;;21.85;9.23;;;;;;;25.46;49.50;99660.81;5101962;28;20043;-61
2023/06/01 10:32:47;;;;;;;26.65;11.43;;;;;;;25.59;47.83;99662.50;5104692;27;20047;-61
2023/06/01 10:36:02;;;;;;;24.05;11.45;;;;;;;25.71;47.48;99667.25;5105824;28;20051;-62
2023/06/01 10:38:29;;;;;;;29.02;13.35;;;;;;;25.53;49.48;99657.50;5100880;28;20407;-62
2023/06/01 10:41:26;;;;;;;32.17;14.60;;;;;;;25.65;47.87;99654.06;5103602;28;20079;-62
2023/06/01 10:43:55;;;;;;;34.13;13.50;;;;;;;24.65;49.65;99650.75;5100053;28;20527;-62
2023/06/01 10:46:35;;;;;;;28.88;10.88;;;;;;;25.40;46.78;99651.13;5104402;28;20036;-62
2023/06/01 10:49:03;;;;;;;26.75;11.52;;;;;;;24.96;48.86;99656.78;5095374;28;20047;-61
2023/06/01 10:51:30;;;;;;;29.50;13.27;;;;;;;24.31;49.29;99655.94;5102386;28;20055;-61
2023/06/01 10:54:19;;;;;;;33.53;13.77;;;;;;;23.70;51.62;99649.59;5109190;28;20353;-61
2023/06/01 10:56:46;;;;;;;26.63;14.38;;;;;;;23.88;51.29;99651.25;5102181;28;20040;-61
2023/06/01 10:59:15;;;;;;;35.28;15.50;;;;;;;24.64;49.88;99649.16;5104055;28;20050;-61
2023/06/01 11:01:43;;;;;;;36.50;15.98;;;;;;;24.77;49.98;99641.88;5098991;28;20047;-61
2023/06/01 11:04:10;;;;;;;36.40;15.90;;;;;;;24.67;49.17;99648.50;5096829;28;20553;-63
2023/06/01 11:06:39;;;;;;;33.90;15.05;;;;;;;24.62;49.80;99652.22;5102924;28;20032;-63
2023/06/01 11:09:07;;;;;;;32.90;15.75;;;;;;;24.49;50.10;99647.75;5101322;28;20355;-62
2023/06/01 11:12:02;;;;;;;24.70;15.02;;;;;;;25.28;47.07;99651.84;5106502;28;20042;-62
2023/06/01 11:14:33;;;;;;;45.03;19.17;;;;;;;24.94;48.67;99644.56;5095835;28;20051;-61
2023/06/01 11:17:28;;;;;;;37.72;19.20;;;;;;;24.39;49.56;99643.38;5096681;28;20083;-62
2023/06/01 11:19:58;;;;;;;26.33;16.38;;;;;;;24.10;49.17;99635.81;5104704;28;20066;-62
2023/06/01 11:22:27;;;;;;;35.97;19.13;;;;;;;24.39;49.04;99639.81;5101757;28;20067;-62
2023/06/01 11:24:54;;;;;;;48.53;19.38;;;;;;;24.21;51.63;99641.75;5100096;28;20040;-62
2023/06/01 11:27:21;;;;;;;34.13;18.88;;;;;;;24.40;49.13;99639.47;5099909;28;20127;-62
2023/06/01 11:29:50;;;;;;;34.90;18.25;;;;;;;23.80;50.37;99643.84;5103186;28;20040;-63
2023/06/01 11:32:18;;;;;;;32.60;18.85;;;;;;;23.72;49.87;99646.56;5100673;28;20421;-63
2023/06/01 11:34:45;;;;;;;43.22;19.77;;;;;;;24.29;48.17;99639.03;5102252;28;20056;-61